CheckWX is a tool to help pilots better visualize weather data.  It is not intended as a substitute for an official pre-flight weather briefing.

09:00:17 UTC

KJFX METAR
Walker County-Bevill Field Airport
Jasper, Alabama, USA
Current

25 mins ago

KJFX 250835Z AUTO 00000KT 9SM CLR 18/18 A2996 RMK AO2 PWINO
Observed
May-25 @ 08:35 UTC
Visibility
Flight Rules
VFR
Cloud Levels
  • Clear skies
Temperature
18°C / 64°F
Dewpoint
18°C / 64°F
Humidity
100%
Altimeter
29.96" Hg
Pressure
1014.52 hPa
Previous

45 mins ago

KJFX 250815Z AUTO 00000KT 2 1/2SM BR CLR 19/19 A2995 RMK AO2 PWINO
Observed
May-25 @ 08:15 UTC
Visibility
Flight Rules
IFR
Conditions
Mist
Cloud Levels
  • Clear skies
Temperature
19°C / 66°F
Dewpoint
19°C / 66°F
Humidity
100%
Altimeter
29.95" Hg
Pressure
1014.22 hPa
Previous

1 hour ago

KJFX 250755Z AUTO 00000KT 9SM CLR 18/18 A2995 RMK AO2 PWINO
Observed
May-25 @ 07:55 UTC
Visibility
Flight Rules
VFR
Cloud Levels
  • Clear skies
Temperature
18°C / 64°F
Dewpoint
18°C / 64°F
Humidity
100%
Altimeter
29.95" Hg
Pressure
1014.22 hPa